Flight Track Log - Related Links

Times and Time Zones

All times are in EDT time to prevent confusion due to time zone crossing. See the XOJ549 flight status page for this flight to view local times or setup timezone preferences in your user account.

Time Position Orientation Groundspeed Altitude Reporting Facility
EDT Latitude Longitude Course Direction KTS MPH feet Rate Location/Type
Sun 01:42:36 PM 40.2061 -111.7211 220° Southwest 194 223 5,200  Level Salt Lake Center
Sun 01:43:31 PM 40.1758 -111.7539 220° Southwest 198 228 8,600 3,719 Climbing Salt Lake Center
Sun 01:44:37 PM 40.1814 -111.8261 276° West 217 250 12,700 2,531 Climbing Salt Lake Center
Sun 01:45:39 PM 40.2322 -111.8800 321° Northwest 296 341 14,000 629 Climbing Salt Lake Center
Sun 01:46:41 PM 40.2739 -111.7683 64° Northeast 338 389 14,000 48 Level Salt Lake Center
Sun 01:47:43 PM 40.2289 -111.6589 118° Southeast 348 400 14,100 1,355 Climbing Salt Lake Center
Sun 01:48:45 PM 40.1831 -111.5517 119° Southeast 340 391 16,800 2,928 Climbing Salt Lake Center
Sun 01:49:48 PM 40.1333 -111.4356 119° Southeast 365 420 20,200 3,339 Climbing Salt Lake Center
Sun 01:50:49 PM 40.0844 -111.3169 118° Southeast 372 428 23,700 3,268 Climbing Salt Lake Center
Sun 01:51:51 PM 40.0311 -111.1889 119° Southeast 370 426 26,900 3,000 Climbing Salt Lake Center
Sun 01:52:53 PM 39.9725 -111.0506 119° Southeast 385 443 29,900 2,613 Climbing Salt Lake Center
Sun 01:53:55 PM 39.9194 -110.9289 120° Southeast 398 458 32,300 2,323 Climbing Salt Lake Center
Sun 01:54:57 PM 39.8567 -110.7858 120° Southeast 405 466 34,700 1,824 Climbing Salt Lake Center
Sun 01:56:00 PM 39.8031 -110.6589 119° Southeast 415 478 36,100 1,344 Climbing Salt Lake Center
Sun 01:57:02 PM 39.7367 -110.5042 119° Southeast 433 498 37,500 1,355 Climbing Salt Lake Center
Sun 01:58:04 PM 39.6839 -110.3650 116° Southeast 448 516 38,900 1,403 Climbing Salt Lake Center
Sun 01:59:06 PM 39.6308 -110.2272 117° Southeast 447 514 40,400 1,016 Climbing Salt Lake Center
Sun 02:00:08 PM 39.5683 -110.0675 117° Southeast 446 513 41,000 290 Climbing Salt Lake Center
Sun 02:01:10 PM 39.5117 -109.9253 117° Southeast 457 526 41,000  Level Salt Lake Center
Sun 02:02:12 PM 39.4444 -109.7533 117° Southeast 474 545 41,000  Level Salt Lake Center
Sun 02:03:14 PM 39.3858 -109.6069 117° Southeast 479 551 41,000  Level Salt Lake Center
Sun 02:04:16 PM 39.3194 -109.4383 117° Southeast 476 548 41,000  Level Salt Lake Center
Sun 02:05:15 PM 39.2594 -109.2925 118° Southeast 473 544 41,000  Level Denver Center
Sun 02:06:17 PM 39.1928 -109.1244 117° Southeast 475 547 41,000  Level Denver Center
Sun 02:07:19 PM 39.1347 -108.9797 117° Southeast 477 549 41,000  Level Denver Center
Sun 02:08:21 PM 39.0658 -108.8122 118° Southeast 478 550 41,000  Level Denver Center
Sun 02:09:23 PM 38.9956 -108.6783 124° Southeast 475 547 41,000  Level Denver Center
Sun 02:11:27 PM 38.8367 -108.3911 125° Southeast 479 551 41,000  Level Denver Center
Sun 02:12:29 PM 38.7508 -108.2364 125° Southeast 478 550 41,000  Level Denver Center
Sun 02:13:31 PM 38.6758 -108.1039 126° Southeast 481 554 41,000  Level Denver Center
Sun 02:14:33 PM 38.6019 -107.9714 125° Southeast 479 551 41,000  Level Denver Center
Sun 02:15:35 PM 38.5164 -107.8167 125° Southeast 478 550 41,000  Level Denver Center
Sun 02:16:37 PM 38.4411 -107.6869 127° Southeast 476 548 41,000  Level Denver Center
Sun 02:17:39 PM 38.3550 -107.5339 126° Southeast 476 548 41,000  Level Denver Center
Sun 02:18:40 PM 38.2797 -107.4033 126° Southeast 478 550 41,000  Level Denver Center
Sun 02:19:42 PM 38.1917 -107.2500 126° Southeast 482 555 41,000  Level Denver Center
Sun 02:20:44 PM 38.1178 -107.1233 127° Southeast 481 554 41,000  Level Denver Center
Sun 02:21:46 PM 38.0278 -106.9653 126° Southeast 482 555 41,000  Level Denver Center
Sun 02:22:48 PM 37.9519 -106.8350 126° Southeast 481 554 41,000  Level Denver Center
Sun 02:23:50 PM 37.8633 -106.6842 127° Southeast 479 551 41,000  Level Denver Center
Sun 02:24:52 PM 37.7931 -106.5622 126° Southeast 483 556 41,000  Level Denver Center
Sun 02:25:54 PM 37.7031 -106.4108 127° Southeast 482 555 41,000  Level Denver Center
Sun 02:26:56 PM 37.6250 -106.2814 127° Southeast 483 556 41,000  Level Denver Center
Sun 02:27:57 PM 37.5339 -106.1281 127° Southeast 488 562 41,000  Level Denver Center
Sun 02:28:59 PM 37.4572 -105.9989 127° Southeast 482 555 41,000  Level Denver Center
Sun 02:30:01 PM 37.3686 -105.8506 127° Southeast 476 548 41,000  Level Denver Center
Sun 02:31:03 PM 37.2769 -105.7364 135° Southeast 463 533 41,000  Level Denver Center
Sun 02:32:05 PM 37.1825 -105.6339 139° Southeast 465 535 41,000  Level Denver Center
Sun 02:33:07 PM 37.0722 -105.5144 139° Southeast 469 540 41,000  Level Denver Center
Sun 02:34:09 PM 36.9769 -105.4111 139° Southeast 471 542 41,000  Level Denver Center
Sun 02:35:11 PM 36.8656 -105.2906 139° Southeast 474 545 41,000  Level Denver Center
Sun 02:35:55 PM 36.8028 -105.2217 139° Southeast 472 543 41,000  Level Albuquerque Center
Sun 02:36:57 PM 36.6914 -105.1022 139° Southeast 472 543 41,000  Level Albuquerque Center
Sun 02:37:59 PM 36.5908 -104.9947 139° Southeast 474 545 41,000  Level Albuquerque Center
Sun 02:39:01 PM 36.4900 -104.8892 140° Southeast 470 541 41,000  Level Albuquerque Center
Sun 02:40:03 PM 36.3897 -104.7822 139° Southeast 471 542 41,000  Level Albuquerque Center
Sun 02:41:05 PM 36.2872 -104.6739 140° Southeast 476 548 41,000  Level Albuquerque Center
Sun 02:42:07 PM 36.1694 -104.5500 140° Southeast 473 544 41,000  Level Albuquerque Center
Sun 02:43:09 PM 36.0672 -104.4439 140° Southeast 475 547 41,000  Level Albuquerque Center
Sun 02:44:11 PM 35.9650 -104.3375 140° Southeast 474 545 41,000  Level Albuquerque Center
Sun 02:45:13 PM 35.8628 -104.2317 140° Southeast 475 547 41,000  Level Albuquerque Center
Sun 02:46:15 PM 35.7606 -104.1239 139° Southeast 476 548 41,000  Level Albuquerque Center
Sun 02:47:16 PM 35.6578 -104.0169 140° Southeast 477 549 41,000  Level Albuquerque Center
Sun 02:48:18 PM 35.5536 -103.9086 140° Southeast 481 554 41,000  Level Albuquerque Center
Sun 02:49:20 PM 35.4489 -103.8014 140° Southeast 481 554 41,000  Level Albuquerque Center
Sun 02:50:22 PM 35.3450 -103.6953 140° Southeast 479 551 41,000  Level Albuquerque Center
Sun 02:51:24 PM 35.2417 -103.5894 140° Southeast 478 550 41,000  Level Albuquerque Center
Sun 02:52:27 PM 35.1206 -103.4664 140° Southeast 478 550 41,000  Level Albuquerque Center
Sun 02:53:28 PM 35.0164 -103.3622 141° Southeast 478 550 41,000  Level Albuquerque Center
Sun 02:54:30 PM 34.9133 -103.2583 140° Southeast 477 549 41,000  Level Albuquerque Center
Sun 02:55:32 PM 34.8094 -103.1547 141° Southeast 476 548 41,000  Level Albuquerque Center
Sun 02:56:34 PM 34.7072 -103.0506 140° Southeast 475 547 41,000  Level Albuquerque Center
Sun 02:57:36 PM 34.6044 -102.9500 141° Southeast 472 543 41,000  Level Albuquerque Center
Sun 02:58:38 PM 34.5025 -102.8469 140° Southeast 471 542 41,000  Level Albuquerque Center
Sun 02:59:40 PM 34.4189 -102.7239 129° Southeast 475 547 41,000  Level Albuquerque Center
Sun 03:00:42 PM 34.3217 -102.5739 128° Southeast 476 548 41,000  Level Albuquerque Center
Sun 03:01:44 PM 34.2400 -102.4486 128° Southeast 475 547 41,000  Level Albuquerque Center
Sun 03:02:46 PM 34.1706 -102.3411 128° Southeast 477 549 41,000  Level Albuquerque Center
Sun 03:03:48 PM 34.0711 -102.1914 129° Southeast 477 549 41,000  Level Albuquerque Center
Sun 03:04:50 PM 33.9883 -102.0667 129° Southeast 477 549 41,000  Level Albuquerque Center
Sun 03:05:52 PM 33.9061 -101.9428 129° Southeast 475 547 41,000  Level Albuquerque Center
Sun 03:06:54 PM 33.8228 -101.8175 129° Southeast 476 548 41,000  Level Albuquerque Center
Sun 03:07:56 PM 33.7392 -101.6925 129° Southeast 478 550 41,000  Level Albuquerque Center
Sun 03:09:06 PM 33.6317 -101.5322 129° Southeast 481 554 41,000  Level Fort Worth Center
Sun 03:10:06 PM 33.5581 -101.4239 129° Southeast 476 548 41,000  Level Fort Worth Center
Sun 03:11:06 PM 33.4683 -101.2881 128° Southeast 469 540 41,000  Level Fort Worth Center
Sun 03:12:06 PM 33.3944 -101.1803 129° Southeast 464 534 41,000  Level Fort Worth Center
Sun 03:13:06 PM 33.3025 -101.0444 129° Southeast 471 542 41,000  Level Fort Worth Center
Sun 03:14:06 PM 33.2283 -100.9397 130° Southeast 465 535 41,000  Level Fort Worth Center
Sun 03:15:06 PM 33.1439 -100.8197 130° Southeast 465 535 41,000  Level Fort Worth Center
Sun 03:16:06 PM 33.0597 -100.6950 129° Southeast 465 535 41,000  Level Fort Worth Center
Sun 03:17:06 PM 32.9772 -100.5756 129° Southeast 465 535 41,000  Level Fort Worth Center
Sun 03:18:06 PM 32.8944 -100.4564 130° Southeast 465 535 41,000  Level Fort Worth Center
Sun 03:19:06 PM 32.8097 -100.3350 130° Southeast 465 535 41,000  Level Fort Worth Center
Sun 03:20:06 PM 32.7228 -100.2136 130° Southeast 465 535 41,000  Level Fort Worth Center
Sun 03:21:06 PM 32.6253 -100.0822 131° Southeast 470 541 41,000  Level Fort Worth Center
Sun 03:22:06 PM 32.5361 -99.9564 130° Southeast 483 556 41,000  Level Fort Worth Center
Sun 03:23:06 PM 32.4425 -99.8431 134° Southeast 488 562 41,000  Level Fort Worth Center
Sun 03:24:06 PM 32.3289 -99.7661 150° Southeast 475 547 41,000  Level Fort Worth Center
Sun 03:25:06 PM 32.2136 -99.6894 151° Southeast 475 547 41,000  Level Fort Worth Center
Sun 03:26:06 PM 32.0981 -99.6156 152° Southeast 475 547 41,000 -31 Level Fort Worth Center
Sun 03:28:20 PM 31.8603 -99.4572 150° Southeast 473 544 40,900 -857 Descending Houston Center
Sun 03:29:22 PM 31.7547 -99.3292 134° Southeast 465 535 38,200 -2,516 Descending Houston Center
Sun 03:30:24 PM 31.6639 -99.2175 134° Southeast 469 540 35,700 -2,371 Descending Houston Center
Sun 03:31:26 PM 31.5772 -99.1117 134° Southeast 451 519 33,300 -2,274 Descending Houston Center
Sun 03:32:28 PM 31.4919 -99.0072 134° Southeast 440 506 31,000 -2,274 Descending Houston Center
Sun 03:33:30 PM 31.4014 -98.8997 135° Southeast 457 526 28,600 -2,323 Descending Houston Center
Sun 03:34:32 PM 31.3100 -98.7886 134° Southeast 470 541 26,200 -2,274 Descending Houston Center
Sun 03:35:34 PM 31.2228 -98.6797 133° Southeast 457 526 23,900 -2,177 Descending Houston Center
Sun 03:36:36 PM 31.1367 -98.5775 135° Southeast 442 509 21,700 -2,274 Descending Houston Center
Sun 03:37:38 PM 31.0408 -98.4628 134° Southeast 422 486 19,200 -2,177 Descending Houston Center
Sun 03:38:40 PM 30.9647 -98.3706 134° Southeast 398 458 17,200 -1,887 Descending Houston Center
Sun 03:39:42 PM 30.8886 -98.2803 134° Southeast 388 447 15,300 -1,839 Descending Houston Center
Sun 03:40:44 PM 30.8142 -98.1917 134° Southeast 383 441 13,400 -2,081 Descending Houston Center
Sun 03:41:46 PM 30.7450 -98.1072 134° Southeast 365 420 11,000 -1,790 Descending Houston Center
Sun 03:42:48 PM 30.6897 -98.0283 129° Southeast 325 374 9,700 -1,597 Descending Houston Center
Sun 03:43:50 PM 30.6386 -97.9461 126° Southeast 276 318 7,700 -1,790 Descending Houston Center
Sun 03:44:52 PM 30.5956 -97.8764 126° Southeast 267 307 6,000 -1,355 Descending Houston Center
Sun 03:45:54 PM 30.5547 -97.8111 126° Southeast 254 292 4,900 -1,306 Descending Houston Center
Sun 03:46:56 PM 30.5144 -97.7492 127° Southeast 244 281 3,300 -919 Descending Houston Center
Sun 03:47:58 PM 30.4722 -97.6942 132° Southeast 236 272 3,000 -145 Descending Houston Center
Sun 03:49:00 PM 30.4247 -97.6639 151° Southeast 218 251 3,000  Level Houston Center
Sun 03:50:01 PM 30.3683 -97.6603 177° South 207 238 3,000 -195 Level Houston Center
Sun 03:51:03 PM 30.3142 -97.6603 180° South 183 211 2,600 -629 Descending Houston Center
Sun 03:52:05 PM 30.2714 -97.6594 179° South 162 186 1,700 -726 Descending Houston Center
Sun 03:53:07 PM 30.2353 -97.6583 178° South 157 181 1,100 -581 Descending Houston Center
Sun 03:55:00 PM 30.1945 -97.6699 221° Southwest  Level Estimated
Sun 04:02:00 PM 30.1945 -97.6699 221° Southwest  Level Estimated

Login

Don't have an account? Register now (free) for customized features, flight alerts, and more!